Manitou Springs, Colorado
Current Conditions -  °F | °C
As of 10:56 PM on Tuesday 27 Jan 2015 (Local Time) from KCWN Reporting Station
Clear Clear  
Wind Chill: 54°   Ceiling: Unl
Heat Index: 54°   Visibility: 10mi
Dew Point: 16°   Wind: 5mph
Humidity: 23%   Direction: 220°SW
Pressure: 29.76"   Gusts: NA
Location:  38.86°N, 104.92°W
Report Text: KCWN 280556Z AUTO 22004KT 10SM CLR 12/M09 A2976 RMK AO2 SLP013 T01211089 10152 20105 55005
Loading
Personal Weather Stations






























Interactive Weather Map New forecast layout! Learn more

10-Day Weather Forecast

Advertisements
Track Severe Weather on mobile